WEATHER DATA

TODAY
Time Temp. Dewp. Hum. Wind dir Wind speed Wind gust Bar. 1h Prec. 24h Prec.
00:02 5.9 3.1 82 225 0.3 1.1 1013.2 0.0000 0.0000
00:22 5.8 3 82 210 0.8 1.7 1013.1 0.0000 0.0000
00:32 5.7 2.9 82 217 0.8 1.7 1013.2 0.0000 0.0000
00:42 5.6 2.8 82 216 0.8 1.9 1013 0.0000 0.0000
00:52 5.5 2.8 83 208 0.8 1.9 1013.1 0.0000 0.0000
01:02 5.3 2.7 83 220 0.8 1.7 1013.1 0.0000 0.0000
01:13 5.2 2.6 83 176 0.8 1.7 1013 0.0000 0.0000
01:23 5.1 2.6 84 189 0.8 1.9 1012.9 0.0000 0.0000
01:32 5 2.5 84 189 0.8 1.9 1012.9 0.0000 0.0000
01:43 5 2.5 84 192 0.8 1.7 1012.8 0.0000 0.0000
01:53 4.9 2.4 84 196 1.1 2.5 1012.7 0.0000 0.0000
02:03 4.9 2.4 84 181 0.8 1.9 1012.7 0.0000 0.0000
02:13 4.8 2.3 84 200 1.1 2.5 1012.7 0.0000 0.0000
02:23 4.8 2.3 84 192 1.1 1.9 1012.6 0.0000 0.0000
02:33 4.7 2.2 84 188 0.8 1.9 1012.5 0.0000 0.0000
02:43 4.7 2.4 85 184 0.8 2.5 1012.5 0.0000 0.0000
02:54 4.6 2.3 85 190 0.8 1.9 1012.4 0.0000 0.0000
03:04 4.6 2.3 85 212 1.1 2.5 1012.3 0.0000 0.0000
03:14 4.5 2.2 85 206 1.1 2.5 1012.2 0.0000 0.0000
03:23 4.4 2.1 85 207 1.1 2.5 1012.2 0.0000 0.0000
03:34 4.4 2.1 85 209 0.8 1.9 1012.2 0.0000 0.0000
03:44 4.4 2.1 85 205 0.8 1.9 1012.1 0.0000 0.0000
03:54 4.4 2.1 85 200 0.8 1.9 1012.1 0.0000 0.0000
04:05 4.4 2.1 85 199 0.8 1.7 1012.1 0.0000 0.0000
04:15 4.5 2.2 85 215 0.8 1.7 1012.1 0.0000 0.0000
04:24 4.5 2.2 85 209 0.8 1.9 1012.1 0.0000 0.0000
04:34 4.4 2.1 85 215 1.1 2.5 1012.2 0.0000 0.0000
04:45 4.4 2.1 85 210 1.1 2.8 1012.2 0.0000 0.0000
04:55 4.3 2 85 216 1.1 2.5 1012.2 0.0000 0.0000
05:05 4.3 2 85 221 1.1 2.8 1012.2 0.0000 0.0000
05:15 4.3 2.2 86 209 1.1 2.8 1012.1 0.0000 0.0000
05:25 4.3 2.2 86 221 1.1 2.5 1012.3 0.0000 0.0000
05:35 4.4 2.3 86 218 1.7 3.3 1012.3 0.0000 0.0000
05:45 4.4 2.3 86 215 1.9 4.2 1012.3 0.0000 0.0000
05:56 4.5 2.5 87 217 1.7 3.3 1012.3 0.0000 0.0000
06:06 4.5 2.4 86 214 1.7 3.6 1012.3 0.0000 0.0000
06:15 4.4 2.3 86 213 1.7 4.2 1012.4 0.0000 0.0000
06:25 4.4 2.3 86 217 1.7 4.2 1012.3 0.0000 0.0000
06:36 4.4 2.3 86 222 1.7 3.3 1012.5 0.0000 0.0000
06:46 4.4 2.3 86 218 1.1 2.8 1012.5 0.0000 0.0000
06:56 4.3 2.3 87 220 1.1 2.8 1012.6 0.0000 0.0000
07:06 4.3 2.3 87 219 1.1 2.5 1012.7 0.0000 0.0000
07:16 4.3 2.2 86 210 1.1 2.5 1012.7 0.0000 0.0000
07:26 4.3 2.2 86 199 0.8 1.7 1012.8 0.0000 0.0000
07:36 4.4 2.3 86 201 0.8 1.9 1012.9 0.0000 0.0000
07:47 4.4 2.3 86 209 0.3 1.1 1013 0.0000 0.0000
07:57 4.5 2.4 86 194 0.3 1.7 1013.1 0.0000 0.0000
08:06 4.6 2.5 86 187 0.8 1.9 1013.1 0.0000 0.0000
08:17 4.7 2.6 86 202 1.1 1.9 1013.2 0.0000 0.0000
08:27 4.8 2.7 86 203 1.1 2.5 1013.2 0.0000 0.0000
08:37 5 2.9 86 204 0.8 1.9 1013.3 0.0000 0.0000
08:47 5.2 3.2 87 205 0.8 1.9 1013.3 0.0000 0.0000
08:58 5.4 3.4 87 201 1.1 2.8 1013.4 0.0000 0.0000
09:07 5.5 3.5 87 214 1.7 3.3 1013.4 0.0000 0.0000
09:17 5.7 3.7 87 220 2.5 5 1013.4 0.0000 0.0000
09:28 6 4 87 235 4.4 6.9 1013.4 0.0000 0.0000
09:38 6.2 4.2 87 232 5.3 7.5 1013.4 0.0000 0.0000
09:48 6.4 4.4 87 236 5.8 8.6 1013.4 0.0000 0.0000
09:58 6.7 4.7 87 229 5.8 9.4 1013.5 0.0000 0.0000
10:08 6.9 4.9 87 217 5.3 10.6 1013.6 0.0000 0.0000
10:18 7.1 5.1 87 221 5.3 10.6 1013.8 0.0000 0.0000
10:28 7.4 5.5 88 224 5 8.6 1013.8 0.0000 0.0000
10:38 7.6 5.7 88 222 5.8 8.6 1013.9 0.0000 0.0000
10:49 7.9 6 88 226 5.3 9.7 1014 0.0000 0.0000
10:59 8 6.1 88 226 6.7 11.1 1014 0.0000 0.0000
11:08 8.2 6.2 87 223 6.1 11.4 1014 0.0000 0.0000
11:19 8.3 6.3 87 221 6.1 11.1 1014 0.0000 0.0000
11:29 8.4 6.4 87 234 6.1 8.9 1014.2 0.0000 0.0000
11:39 8.5 6.5 87 238 5.8 8.6 1014.1 0.0000 0.0000
11:49 8.5 6.5 87 239 5.8 8.9 1014.1 0.0000 0.0000
11:59 8.5 6.5 87 245 5.3 8.3 1014 0.0000 0.0000
12:09 8.6 6.6 87 237 5.8 8.9 1013.8 0.0000 0.0000
12:19 8.6 6.6 87 243 5 8.6 1014 0.0000 0.0000
12:29 8.6 6.6 87 244 4.2 6.7 1014.1 0.0000 0.0000
12:40 8.6 6.6 87 236 3.6 6.1 1014.2 0.0000 0.0000
12:50 8.7 6.7 87 238 4.4 7.8 1014.2 0.0000 0.0000
12:59 8.7 6.7 87 239 5.8 8.9 1014.1 0.0000 0.0000
13:10 8.8 6.8 87 238 5 8.9 1014.2 0.0000 0.0000
13:20 8.9 6.9 87 240 5.3 8.3 1014.1 0.0000 0.0000
13:30 8.9 6.9 87 238 5.3 8.6 1014.1 0.0000 0.0000
13:40 8.9 6.9 87 239 6.7 9.4 1014 0.0000 0.0000
13:51 8.9 6.9 87 238 6.7 8.6 1013.9 0.0000 0.0000
14:00 8.9 6.9 87 236 6.1 9.7 1013.8 0.0000 0.0000
14:10 8.9 6.9 87 235 5.8 9.7 1013.9 0.0000 0.0000
14:21 8.9 6.9 87 238 5.8 9.7 1013.9 0.0000 0.0000
14:31 8.9 6.9 87 234 6.1 8.3 1013.8 0.0000 0.0000
14:41 9 7 87 237 6.7 9.4 1013.8 0.0000 0.0000
14:51 9.1 7.1 87 232 7.5 12.2 1013.7 0.0000 0.0000
15:11 9.2 7.2 87 220 6.9 11.1 1013.7 0.0000 0.0000
15:21 9.3 7.3 87 221 5.8 12.2 1013.7 0.0000 0.0000
15:31 9.3 7.3 87 221 7.5 11.1 1013.9 0.0000 0.0000
15:42 9.3 7.3 87 218 6.1 10.6 1014 0.0000 0.0000
15:48 9.3 7.3 87 212 5.3 15.3 1014 0.0000 0.0000
15:58 9.4 7.3 87 210 4.4 13.6 1014 0.0000 0.0000
16:08 9.4 7.3 87 188 4.2 12.2 1014 0.0000 0.0000
16:18 9.4 7.3 87 220 3.6 13.6 1014 0.0000 0.0000
16:29 9.4 7.3 87 213 4.2 12.2 1014.1 0.0000 0.0000
16:38 9.4 7.3 87 225 5.8 10.3 1014.1 0.0000 0.0000
16:48 9.3 7.3 87 224 6.9 13.9 1014.1 0.0000 0.0000
16:59 9.2 7.2 87 233 6.1 10.6 1014.1 0.0000 0.0000
17:09 9.1 7.1 87 237 6.1 9.7 1014.1 0.0000 0.0000
17:19 9 7 87 234 5 8.3 1014.1 0.0000 0.0000
17:29 8.9 6.9 87 226 4.2 5.8 1014.2 0.0000 0.0000
17:39 8.8 6.8 87 225 2.8 5.8 1014.3 0.0000 0.0000
17:49 8.7 6.7 87 225 1.9 4.4 1014.3 0.0000 0.0000
17:59 8.5 6.5 87 226 2.8 6.9 1014.5 0.0000 0.0000

DAY STATISTIC

2019-02-19
TEMPERATURE
AVERAGE
6.6
HIGH
9.4
15:58
LOW
4.3
04:55
PRESSURE
AVERAGE
1013.3
HIGH
1014.5
17:59
LOW
1012.1
03:44
DEWPOINT
AVERAGE
4.4
HIGH
7.3
15:21
LOW
2.0
04:55
HUMIDITY
AVERAGE
86
HIGH
88
10:28
LOW
82
00:02
WIND SPEED
AVERAGE
3.1
HIGH
7.5
14:51
WIND GUST
AVERAGE
5.8
HIGH
15.3
15:48
WIND DIRECTION
PREVAILING
SW
79.2%
N
0.0
NE
0.0
E
0.0
SE
0.0
S
20.8
SW
79.2
W
0.0
NW
0.0
PRECIPITATION
RAIN HOUR
0.0
RAIN DAY
0.0
TEMPERATURE (°C)
LOW
4.3
HIGH
9.4
AVERAGE
6.6
PRESSURE (hpa)
LOW
1012.1
HIGH
1014.5
AVERAGE
1013.3
DEVICE